Terminal Aerodrome Forecast
Issued by NWS Duluth, MN

Home | Current Version | Previous Version | Text Only | Print | Product List | Glossary On
Versions: 1 2 3 4 5 6 7 8 9 10 11 12 13 14 15 16 17 18 19 20 21 22 23
000
FTUS43 KDLH 290536
TAFINL
TAF
KINL 290536Z 2906/3006 VRB03KT 3SM -RA BR OVC003
     FM290800 35003KT 1SM BR VCSH OVC003
      TEMPO 2909/2912 1/2SM FG
     FM291400 30007KT 4SM BR OVC007
     FM291600 29010KT P6SM BKN020
     FM292000 29010G17KT P6SM VCSH BKN035
     FM300100 29005KT P6SM SCT050=

USA.gov is the U.S. government's official web portal to all federal, state and local government web resources and services.